createdAt,value
2023-04-15T00:01:02.888Z,6.10
2023-04-15T00:03:32.072Z,6.10
2023-04-15T00:06:01.936Z,6.00
2023-04-15T00:08:31.201Z,5.80
2023-04-15T00:11:03.322Z,5.70
2023-04-15T00:13:35.008Z,5.50
2023-04-15T00:16:03.648Z,5.80
2023-04-15T00:18:33.023Z,7.30
2023-04-15T00:21:01.962Z,5.80
2023-04-15T00:23:31.028Z,5.90
2023-04-15T00:25:59.646Z,5.80
2023-04-15T00:28:28.528Z,6.10
2023-04-15T00:30:57.971Z,5.90
2023-04-15T00:35:55.508Z,6.30
2023-04-15T00:38:24.495Z,6.40
2023-04-15T00:40:53.670Z,6.20
2023-04-15T00:43:22.491Z,6.00
2023-04-15T00:45:53.888Z,6.00
2023-04-15T00:48:22.728Z,6.50
2023-04-15T00:50:51.359Z,5.70
2023-04-15T00:53:19.892Z,6.00
2023-04-15T00:55:48.643Z,5.50
2023-04-15T00:58:18.190Z,5.70
2023-04-15T01:00:47.275Z,6.10
2023-04-15T01:03:16.302Z,5.90
2023-04-15T01:05:45.163Z,6.00
2023-04-15T01:08:14.120Z,6.40
2023-04-15T01:10:42.944Z,7.10
2023-04-15T01:13:11.719Z,6.30
2023-04-15T01:15:41.799Z,6.70
2023-04-15T01:18:10.721Z,7.30
2023-04-15T01:20:40.087Z,6.50
2023-04-15T01:23:08.677Z,7.10
2023-04-15T01:25:37.443Z,7.00
2023-04-15T01:28:06.403Z,7.10
2023-04-15T01:30:36.044Z,6.70
2023-04-15T01:35:33.831Z,7.00
2023-04-15T01:38:11.724Z,6.40
2023-04-15T01:40:41.304Z,7.30
2023-04-15T01:45:38.677Z,6.50
2023-04-15T01:48:07.419Z,7.00
2023-04-15T01:50:40.290Z,7.10
2023-04-15T01:53:09.048Z,7.30
2023-04-15T01:55:37.955Z,7.30
2023-04-15T01:58:06.562Z,7.80
2023-04-15T02:00:35.693Z,7.90
2023-04-15T02:03:04.533Z,7.30
2023-04-15T02:05:34.231Z,7.90
2023-04-15T02:08:04.237Z,7.50
2023-04-15T02:10:33.014Z,7.70
2023-04-15T02:13:02.132Z,8.00
2023-04-15T02:15:31.002Z,8.00
2023-04-15T02:18:01.179Z,8.10
2023-04-15T02:20:31.127Z,7.90
2023-04-15T02:23:00.161Z,8.40
2023-04-15T02:25:29.020Z,9.00
2023-04-15T02:27:58.729Z,8.50
2023-04-15T02:30:27.527Z,10.00
2023-04-15T02:32:58.472Z,8.90
2023-04-15T02:35:27.768Z,8.90
2023-04-15T02:37:56.751Z,9.30
2023-04-15T02:40:25.748Z,9.00
2023-04-15T02:42:54.346Z,9.40
2023-04-15T02:45:26.136Z,9.50
2023-04-15T02:47:55.291Z,9.70
2023-04-15T02:50:24.510Z,9.30
2023-04-15T02:52:53.075Z,9.70
2023-04-15T02:55:21.838Z,9.50
2023-04-15T02:57:50.953Z,9.40
2023-04-15T03:00:19.724Z,9.00
2023-04-15T03:05:21.501Z,9.50
2023-04-15T03:07:53.155Z,9.60
2023-04-15T03:10:22.769Z,9.50
2023-04-15T03:12:51.392Z,10.40
2023-04-15T03:15:21.524Z,10.40
2023-04-15T03:17:52.747Z,10.30
2023-04-15T03:20:21.381Z,10.10
2023-04-15T03:22:50.306Z,9.80
2023-04-15T03:25:20.642Z,9.90
2023-04-15T03:27:49.308Z,9.80
2023-04-15T03:30:18.804Z,9.60
2023-04-15T03:32:47.948Z,10.10
2023-04-15T03:35:16.908Z,10.40
2023-04-15T03:37:45.524Z,10.30
2023-04-15T03:40:14.211Z,10.20
2023-04-15T03:42:42.944Z,10.00
2023-04-15T03:45:12.149Z,10.20
2023-04-15T03:47:40.862Z,10.60
2023-04-15T03:50:09.828Z,10.00
2023-04-15T03:52:38.616Z,9.70
2023-04-15T03:55:08.754Z,10.40
2023-04-15T03:57:39.405Z,9.40
2023-04-15T04:00:10.939Z,9.70
2023-04-15T04:02:42.565Z,9.90
2023-04-15T04:05:11.844Z,9.50
2023-04-15T04:07:40.743Z,9.50
2023-04-15T04:10:09.927Z,10.20
2023-04-15T04:12:38.762Z,10.60
2023-04-15T04:15:08.359Z,9.30
2023-04-15T04:20:06.966Z,9.20
2023-04-15T04:22:40.759Z,8.90
2023-04-15T04:25:13.353Z,10.20
2023-04-15T04:27:42.048Z,11.20
2023-04-15T04:30:11.190Z,10.20
2023-04-15T04:32:40.030Z,10.80
2023-04-15T04:35:09.331Z,11.40
2023-04-15T04:37:37.897Z,10.10
2023-04-15T04:40:08.358Z,10.60
2023-04-15T04:42:38.677Z,10.70
2023-04-15T04:45:09.164Z,11.30
2023-04-15T04:47:37.870Z,10.30
2023-04-15T04:50:08.279Z,10.50
2023-04-15T04:52:37.472Z,10.70
2023-04-15T04:55:06.852Z,11.50
2023-04-15T04:57:39.764Z,11.10
2023-04-15T05:00:09.430Z,11.20
2023-04-15T05:02:38.196Z,11.10
2023-04-15T05:05:08.227Z,12.10
2023-04-15T05:07:37.019Z,11.20
2023-04-15T05:10:06.821Z,10.90
2023-04-15T05:12:37.757Z,12.10
2023-04-15T05:15:07.904Z,11.90
2023-04-15T05:17:36.779Z,11.50
2023-04-15T05:20:06.631Z,11.30
2023-04-15T05:22:35.234Z,11.70
2023-04-15T05:25:04.208Z,11.20
2023-04-15T05:27:32.832Z,11.20
2023-04-15T05:30:01.497Z,11.10
2023-04-15T05:32:30.322Z,11.90
2023-04-15T05:34:59.080Z,11.70
2023-04-15T05:37:27.671Z,13.60
2023-04-15T05:39:56.999Z,12.10
2023-04-15T05:42:25.831Z,12.50
2023-04-15T05:44:54.373Z,12.90
2023-04-15T05:47:22.987Z,12.10
2023-04-15T05:49:51.714Z,12.50
2023-04-15T05:52:20.827Z,12.80
2023-04-15T05:54:49.432Z,13.20
2023-04-15T05:57:18.098Z,13.50
2023-04-15T05:59:46.933Z,12.80
2023-04-15T06:02:15.788Z,14.10
2023-04-15T06:04:45.778Z,13.10
2023-04-15T06:07:14.438Z,13.50
2023-04-15T06:09:42.982Z,14.60
2023-04-15T06:12:13.352Z,12.70
2023-04-15T06:14:42.079Z,14.20
2023-04-15T06:17:10.825Z,13.70
2023-04-15T06:19:39.711Z,14.40
2023-04-15T06:22:08.530Z,14.00
2023-04-15T06:24:37.390Z,14.90
2023-04-15T06:27:05.967Z,13.80
2023-04-15T06:29:34.752Z,13.40
2023-04-15T06:32:03.365Z,13.40
2023-04-15T06:34:32.085Z,15.60
2023-04-15T06:37:01.644Z,15.80
2023-04-15T06:39:30.252Z,15.60
2023-04-15T06:41:59.303Z,15.70
2023-04-15T06:44:27.985Z,15.60
2023-04-15T06:46:57.083Z,17.10
2023-04-15T06:49:25.880Z,16.50
2023-04-15T06:51:54.558Z,16.60
2023-04-15T06:54:23.217Z,16.20
2023-04-15T06:56:52.897Z,15.70
2023-04-15T06:59:21.509Z,15.90
2023-04-15T07:01:50.276Z,14.50
2023-04-15T07:04:18.897Z,15.40
2023-04-15T07:06:47.540Z,15.60
2023-04-15T07:09:16.280Z,17.30
2023-04-15T07:11:44.928Z,16.60
2023-04-15T07:14:13.530Z,15.70
2023-04-15T07:16:42.169Z,17.20
2023-04-15T07:19:10.992Z,16.90
2023-04-15T07:21:41.797Z,16.20
2023-04-15T07:24:10.819Z,15.30
2023-04-15T07:26:39.997Z,16.60
2023-04-15T07:29:08.631Z,15.20
2023-04-15T07:31:37.363Z,15.60
2023-04-15T07:34:07.641Z,16.70
2023-04-15T07:36:37.156Z,16.10
2023-04-15T07:39:06.374Z,17.70
2023-04-15T07:41:34.984Z,17.00
2023-04-15T07:44:03.579Z,15.70
2023-04-15T07:46:32.201Z,17.40
2023-04-15T07:49:01.056Z,16.80
2023-04-15T07:51:30.901Z,19.10
2023-04-15T07:53:59.592Z,16.90
2023-04-15T07:56:28.267Z,17.10
2023-04-15T07:58:56.872Z,15.80
2023-04-15T08:01:25.563Z,15.90
2023-04-15T08:03:55.303Z,17.20
2023-04-15T08:06:24.097Z,16.90
2023-04-15T08:08:53.084Z,17.80
2023-04-15T08:11:22.089Z,15.90
2023-04-15T08:13:50.773Z,17.80
2023-04-15T08:16:23.038Z,16.80
2023-04-15T08:18:54.320Z,16.80
2023-04-15T08:21:24.090Z,16.90
2023-04-15T08:23:53.863Z,18.20
2023-04-15T08:26:23.142Z,16.40
2023-04-15T08:28:51.945Z,17.40
2023-04-15T08:31:21.241Z,17.00
2023-04-15T08:36:20.853Z,17.10
2023-04-15T08:38:49.543Z,17.30
2023-04-15T08:41:27.720Z,18.40
2023-04-15T08:44:04.317Z,17.30
2023-04-15T08:46:36.721Z,17.80
2023-04-15T08:49:06.040Z,16.70
2023-04-15T08:51:34.970Z,16.60
2023-04-15T08:54:04.752Z,17.10
2023-04-15T08:56:33.565Z,16.50
2023-04-15T08:59:02.678Z,16.40
2023-04-15T09:01:33.394Z,17.00
2023-04-15T09:04:03.536Z,17.30
2023-04-15T09:06:35.180Z,18.50
2023-04-15T09:09:04.395Z,18.80
2023-04-15T09:11:33.192Z,18.30
2023-04-15T09:14:02.117Z,16.80
2023-04-15T09:16:31.043Z,18.00
2023-04-15T09:18:59.765Z,16.40
2023-04-15T09:21:29.839Z,16.70
2023-04-15T09:24:01.431Z,16.90
2023-04-15T09:26:35.639Z,17.60
2023-04-15T09:29:09.654Z,18.60
2023-04-15T09:31:38.366Z,17.70
2023-04-15T09:34:07.769Z,17.80
2023-04-15T09:39:20.416Z,16.60
2023-04-15T09:42:07.189Z,15.90
2023-04-15T09:44:36.040Z,17.30
2023-04-15T09:47:04.633Z,17.40
2023-04-15T09:49:33.378Z,16.70
2023-04-15T09:52:06.315Z,18.40
2023-04-15T09:54:39.426Z,18.30
2023-04-15T09:57:10.988Z,17.60
2023-04-15T09:59:39.956Z,17.80
2023-04-15T10:02:08.683Z,16.10
2023-04-15T10:04:41.855Z,16.30
2023-04-15T10:07:12.370Z,17.70
2023-04-15T10:09:41.251Z,16.90
2023-04-15T10:12:10.662Z,18.00
2023-04-15T10:17:12.813Z,17.60
2023-04-15T10:19:42.017Z,18.40
2023-04-15T10:22:11.101Z,17.50
2023-04-15T10:24:40.931Z,18.30
2023-04-15T10:27:10.300Z,15.00
2023-04-15T10:29:39.272Z,17.40
2023-04-15T10:32:08.139Z,17.30
2023-04-15T10:34:38.386Z,16.70
2023-04-15T10:37:11.914Z,17.70
2023-04-15T10:39:45.094Z,16.70
2023-04-15T10:42:19.460Z,17.50
2023-04-15T10:44:56.770Z,17.40
2023-04-15T10:47:25.819Z,18.90
2023-04-15T10:50:02.621Z,17.30
2023-04-15T10:52:31.364Z,16.90
2023-04-15T10:55:21.134Z,17.00
2023-04-15T10:57:56.357Z,17.00
2023-04-15T11:00:33.104Z,17.30
2023-04-15T11:03:09.909Z,17.20
2023-04-15T11:05:54.988Z,17.20
2023-04-15T11:08:55.124Z,17.80
2023-04-15T11:11:23.866Z,17.20
2023-04-15T11:13:55.588Z,17.50
2023-04-15T11:16:24.677Z,16.30
2023-04-15T11:18:56.104Z,16.80
2023-04-15T11:21:28.464Z,18.30
2023-04-15T11:23:57.354Z,17.00
2023-04-15T11:26:27.511Z,17.10
2023-04-15T11:28:56.301Z,18.30
2023-04-15T11:31:28.821Z,17.20
2023-04-15T11:34:02.584Z,14.90
2023-04-15T11:36:34.771Z,17.00
2023-04-15T11:39:04.289Z,16.50
2023-04-15T11:41:32.955Z,15.80
2023-04-15T11:44:01.688Z,16.40
2023-04-15T11:46:34.435Z,15.70
2023-04-15T11:49:03.131Z,17.20
2023-04-15T11:51:36.201Z,18.20
2023-04-15T11:54:05.082Z,16.70
2023-04-15T11:56:34.073Z,16.10
2023-04-15T11:59:03.328Z,16.60
2023-04-15T12:01:39.607Z,14.40
2023-04-15T12:04:23.322Z,15.20
2023-04-15T12:06:54.197Z,14.70
2023-04-15T12:09:22.854Z,14.70
2023-04-15T12:11:54.017Z,16.10
2023-04-15T12:14:26.899Z,13.70
2023-04-15T12:17:00.642Z,14.50
2023-04-15T12:19:32.738Z,13.50
2023-04-15T12:22:04.717Z,13.20
2023-04-15T12:24:35.088Z,14.30
2023-04-15T12:27:09.485Z,15.30
2023-04-15T12:29:40.610Z,12.80
2023-04-15T12:32:14.112Z,12.90
2023-04-15T12:34:51.621Z,12.60
2023-04-15T12:37:20.775Z,13.20
2023-04-15T12:39:51.216Z,13.40
2023-04-15T12:42:20.579Z,13.30
2023-04-15T12:47:17.592Z,11.70
2023-04-15T12:49:46.276Z,12.40
2023-04-15T12:52:15.300Z,12.10
2023-04-15T12:54:43.890Z,11.20
2023-04-15T12:57:12.569Z,11.60
2023-04-15T12:59:41.271Z,11.30
2023-04-15T13:02:09.927Z,11.10
2023-04-15T13:04:38.614Z,11.50
2023-04-15T13:07:07.238Z,11.10
2023-04-15T13:09:35.785Z,10.50
2023-04-15T13:12:05.646Z,10.60
2023-04-15T13:14:34.319Z,10.20
2023-04-15T13:17:04.449Z,9.70
2023-04-15T13:19:33.183Z,9.00
2023-04-15T13:22:02.012Z,9.50
2023-04-15T13:24:30.558Z,8.40
2023-04-15T13:26:59.516Z,8.90
2023-04-15T13:29:28.088Z,8.20
2023-04-15T13:31:57.060Z,8.20
2023-04-15T13:34:25.632Z,8.30
2023-04-15T13:36:54.320Z,8.40
2023-04-15T13:39:23.473Z,7.10
2023-04-15T13:44:22.083Z,6.60
2023-04-15T13:46:51.284Z,7.30
2023-04-15T13:49:20.015Z,7.00
2023-04-15T13:51:48.620Z,6.50
2023-04-15T13:54:17.314Z,6.70
2023-04-15T13:56:45.945Z,5.20
2023-04-15T13:59:14.622Z,5.90
2023-04-15T14:01:43.986Z,5.80
2023-04-15T14:04:12.790Z,5.60
2023-04-15T14:06:41.540Z,5.80
2023-04-15T14:09:10.708Z,5.40
2023-04-15T14:11:39.780Z,5.50
2023-04-15T14:16:36.926Z,5.10
2023-04-15T14:19:06.040Z,5.30
2023-04-15T14:24:03.309Z,5.00
2023-04-15T14:26:31.964Z,4.60
2023-04-15T14:29:00.884Z,5.00
2023-04-15T14:33:57.886Z,4.70
2023-04-15T14:36:27.416Z,3.90
2023-04-15T14:38:56.066Z,3.50
2023-04-15T14:41:24.865Z,3.80
2023-04-15T14:43:53.619Z,3.80
2023-04-15T14:46:22.652Z,3.90
2023-04-15T14:48:51.329Z,3.10
2023-04-15T14:51:20.464Z,3.30
2023-04-15T14:53:49.220Z,3.40
2023-04-15T14:56:17.847Z,3.20
2023-04-15T14:58:46.547Z,2.80
2023-04-15T15:01:15.582Z,2.80
2023-04-15T15:03:44.476Z,2.70
2023-04-15T15:06:13.712Z,2.50
2023-04-15T15:08:42.316Z,2.20
2023-04-15T15:11:10.903Z,2.70
2023-04-15T15:13:39.575Z,2.80
2023-04-15T15:16:08.253Z,2.70
2023-04-15T15:18:36.923Z,2.60
2023-04-15T15:21:05.751Z,2.50
2023-04-15T15:23:34.468Z,2.10
2023-04-15T15:26:03.113Z,3.30
2023-04-15T15:28:31.874Z,2.30
2023-04-15T15:31:00.816Z,2.10
2023-04-15T15:33:30.290Z,2.10
2023-04-15T15:35:59.457Z,2.20
2023-04-15T15:38:28.718Z,1.90
2023-04-15T15:43:25.768Z,1.60
2023-04-15T15:45:55.814Z,1.70
2023-04-15T15:48:24.776Z,1.60
2023-04-15T15:50:53.936Z,1.40
2023-04-15T15:53:24.609Z,1.80
2023-04-15T15:55:54.024Z,1.70
2023-04-15T15:58:22.822Z,1.60
2023-04-15T16:00:51.460Z,1.50
2023-04-15T16:03:20.280Z,1.70
2023-04-15T16:05:49.232Z,1.80
2023-04-15T16:08:17.860Z,1.90
2023-04-15T16:10:46.644Z,1.50
2023-04-15T16:13:15.669Z,1.60
2023-04-15T16:15:44.328Z,1.50
2023-04-15T16:18:12.871Z,1.80
2023-04-15T16:23:16.611Z,1.60
2023-04-15T16:25:45.763Z,1.50
2023-04-15T16:28:25.526Z,1.50
2023-04-15T16:30:56.800Z,1.60
2023-04-15T16:33:25.600Z,1.40
2023-04-15T16:35:54.200Z,1.50
2023-04-15T16:38:22.921Z,1.40
2023-04-15T16:40:51.912Z,1.60
2023-04-15T16:43:20.554Z,1.30
2023-04-15T16:45:51.569Z,1.20
2023-04-15T16:48:21.203Z,1.40
2023-04-15T16:50:49.907Z,1.90
2023-04-15T16:53:18.615Z,1.60
2023-04-15T16:55:47.306Z,1.70
2023-04-15T16:58:16.128Z,1.50
2023-04-15T17:00:44.940Z,1.70
2023-04-15T17:03:13.765Z,1.60
2023-04-15T17:05:42.591Z,1.80
2023-04-15T17:08:11.289Z,1.60
2023-04-15T17:10:40.001Z,1.80
2023-04-15T17:13:08.760Z,1.90
2023-04-15T17:15:37.488Z,1.50
2023-04-15T17:18:06.301Z,1.50
2023-04-15T17:20:35.222Z,1.50
2023-04-15T17:23:04.580Z,1.40
2023-04-15T17:25:33.372Z,1.40
2023-04-15T17:28:02.473Z,1.50
2023-04-15T17:30:32.507Z,1.40
2023-04-15T17:33:01.853Z,1.60
2023-04-15T17:35:31.833Z,1.50
2023-04-15T17:38:00.637Z,1.50
2023-04-15T17:40:29.177Z,1.70
2023-04-15T17:42:59.305Z,1.60
2023-04-15T17:45:27.973Z,2.40
2023-04-15T17:48:02.380Z,2.10
2023-04-15T17:50:34.356Z,2.30
2023-04-15T17:53:03.161Z,4.70
2023-04-15T17:55:36.000Z,2.10
2023-04-15T17:58:04.659Z,2.30
2023-04-15T18:00:33.571Z,2.20
2023-04-15T18:03:02.648Z,2.40
2023-04-15T18:05:32.012Z,2.80
2023-04-15T18:08:00.652Z,2.50
2023-04-15T18:10:29.371Z,2.50
2023-04-15T18:12:58.038Z,2.50
2023-04-15T18:15:27.356Z,2.60
2023-04-15T18:17:56.609Z,2.50
2023-04-15T18:20:29.341Z,2.50
2023-04-15T18:22:58.444Z,3.00
2023-04-15T18:25:27.025Z,3.10
2023-04-15T18:27:56.399Z,3.40
2023-04-15T18:30:25.587Z,3.60
2023-04-15T18:32:54.450Z,3.50
2023-04-15T18:35:24.551Z,3.40
2023-04-15T18:37:53.513Z,3.10
2023-04-15T18:40:22.202Z,3.40
2023-04-15T18:42:52.995Z,3.50
2023-04-15T18:45:22.162Z,3.00
2023-04-15T18:47:51.653Z,3.50
2023-04-15T18:50:21.061Z,3.60
2023-04-15T18:52:49.630Z,4.50
2023-04-15T18:55:19.282Z,4.20
2023-04-15T18:57:48.397Z,5.00
2023-04-15T19:00:17.827Z,4.70
2023-04-15T19:02:46.533Z,4.60
2023-04-15T19:05:15.615Z,5.20
2023-04-15T19:07:44.900Z,4.90
2023-04-15T19:10:13.804Z,5.30
2023-04-15T19:12:44.596Z,5.00
2023-04-15T19:15:13.205Z,4.80
2023-04-15T19:17:41.906Z,5.10
2023-04-15T19:20:10.852Z,5.30
2023-04-15T19:25:09.457Z,5.00
2023-04-15T19:27:41.300Z,4.90
2023-04-15T19:30:10.666Z,5.40
2023-04-15T19:32:39.576Z,5.10
2023-04-15T19:35:10.798Z,5.00
2023-04-15T19:37:40.675Z,6.70
2023-04-15T19:40:09.916Z,6.30
2023-04-15T19:42:39.033Z,6.60
2023-04-15T19:45:08.707Z,5.40
2023-04-15T19:47:37.317Z,5.50
2023-04-15T19:50:08.051Z,5.50
2023-04-15T19:52:36.730Z,5.00
2023-04-15T19:55:05.893Z,5.40
2023-04-15T19:57:35.000Z,5.60
2023-04-15T20:00:06.204Z,5.20
2023-04-15T20:02:34.785Z,6.10
2023-04-15T20:05:03.950Z,5.60
2023-04-15T20:07:32.825Z,5.90
2023-04-15T20:10:01.751Z,5.70
2023-04-15T20:12:50.674Z,5.90
2023-04-15T20:15:19.667Z,4.80
2023-04-15T20:17:48.520Z,5.00
2023-04-15T20:20:17.185Z,5.60
2023-04-15T20:22:46.054Z,5.10
2023-04-15T20:25:14.655Z,5.70
2023-04-15T20:27:43.258Z,5.10
2023-04-15T20:30:12.361Z,6.10
2023-04-15T20:32:41.027Z,5.60
2023-04-15T20:35:09.861Z,5.20
2023-04-15T20:37:38.593Z,5.60
2023-04-15T20:40:08.109Z,5.70
2023-04-15T20:42:36.664Z,5.80
2023-04-15T20:45:07.271Z,5.80
2023-04-15T20:47:36.028Z,5.70
2023-04-15T20:50:05.009Z,6.40
2023-04-15T20:52:33.730Z,6.40
2023-04-15T20:55:02.391Z,5.90
2023-04-15T20:57:31.085Z,7.00
2023-04-15T20:59:59.604Z,7.90
2023-04-15T21:02:28.452Z,6.70
2023-04-15T21:04:59.414Z,6.60
2023-04-15T21:07:28.006Z,6.70
2023-04-15T21:09:56.656Z,6.60
2023-04-15T21:12:25.328Z,7.50
2023-04-15T21:14:54.041Z,7.70
2023-04-15T21:17:22.915Z,7.20
2023-04-15T21:19:51.745Z,6.50
2023-04-15T21:22:20.937Z,5.90
2023-04-15T21:24:49.595Z,6.60
2023-04-15T21:27:18.246Z,6.20
2023-04-15T21:29:46.889Z,5.90
2023-04-15T21:32:16.127Z,6.00
2023-04-15T21:34:44.979Z,6.20
2023-04-15T21:37:13.561Z,5.60
2023-04-15T21:39:42.106Z,5.40
2023-04-15T21:42:10.806Z,5.70
2023-04-15T21:44:39.738Z,5.50
2023-04-15T21:47:08.456Z,5.10
2023-04-15T21:49:37.161Z,4.90
2023-04-15T21:52:06.160Z,5.20
2023-04-15T21:54:37.253Z,4.90
2023-04-15T21:57:05.874Z,4.30
2023-04-15T21:59:34.515Z,4.40
2023-04-15T22:02:03.249Z,4.90
2023-04-15T22:04:31.964Z,4.50
2023-04-15T22:07:02.461Z,4.60
2023-04-15T22:09:31.309Z,4.00
2023-04-15T22:12:00.080Z,4.80
2023-04-15T22:14:30.706Z,4.90
2023-04-15T22:16:59.597Z,3.40
2023-04-15T22:19:28.383Z,4.20
2023-04-15T22:21:56.973Z,3.60
2023-04-15T22:24:36.987Z,4.10
2023-04-15T22:27:08.941Z,4.60
2023-04-15T22:29:37.489Z,4.20
2023-04-15T22:32:07.286Z,4.10
2023-04-15T22:34:36.269Z,4.40
2023-04-15T22:37:05.032Z,4.70
2023-04-15T22:39:33.739Z,6.00
2023-04-15T22:42:02.746Z,6.00
2023-04-15T22:44:31.596Z,5.70
2023-04-15T22:47:00.443Z,5.40
2023-04-15T22:49:29.197Z,5.20
2023-04-15T22:51:57.802Z,5.30
2023-04-15T22:54:26.904Z,5.00
2023-04-15T22:56:56.692Z,5.10
2023-04-15T22:59:26.198Z,5.80
2023-04-15T23:01:55.140Z,5.50
2023-04-15T23:04:26.405Z,5.10
2023-04-15T23:06:57.064Z,6.00
2023-04-15T23:09:25.742Z,6.10
2023-04-15T23:11:54.925Z,6.10
2023-04-15T23:14:23.608Z,6.50
2023-04-15T23:16:52.240Z,6.50
2023-04-15T23:19:21.008Z,6.10
2023-04-15T23:21:50.222Z,5.90
2023-04-15T23:24:18.801Z,6.20
2023-04-15T23:26:47.674Z,5.60
2023-04-15T23:29:16.469Z,6.00
2023-04-15T23:31:45.166Z,5.40
2023-04-15T23:34:13.785Z,5.90
2023-04-15T23:36:42.393Z,6.20
2023-04-15T23:39:11.145Z,6.50
2023-04-15T23:41:39.920Z,5.40
2023-04-15T23:44:09.938Z,6.50
2023-04-15T23:46:38.822Z,6.90
2023-04-15T23:49:07.637Z,7.40
2023-04-15T23:51:36.473Z,7.20
2023-04-15T23:54:05.099Z,7.40
2023-04-15T23:56:33.690Z,7.40
2023-04-15T23:59:02.307Z,7.70
